Time;durP1;ratioP1;P1;durP2;ratioP2;P2;SDS_P1;SDS_P2;PMS_P1;PMS_P2;Temp;Humidity;BMP_temperature;BMP_pressure;BME280_temperature;BME280_humidity;BME280_pressure;Samples;Min_cycle;Max_cycle;Signal;HPM_P1;HPM_P2
2022/04/21 00:00:18;;;;;;;9.63;5.75;;;;;;;;;;5043762;28;20611;-62
2022/04/21 00:02:45;;;;;;;9.77;5.90;;;;;;;;;;5040303;28;20033;-62
2022/04/21 00:05:12;;;;;;;9.90;5.60;;;;;;;;;;5040844;28;20495;-61
2022/04/21 00:07:39;;;;;;;8.50;5.80;;;;;;;;;;5043350;28;20037;-62
2022/04/21 00:10:07;;;;;;;10.73;5.70;;;;;;;;;;5044413;28;20127;-61
2022/04/21 00:12:34;;;;;;;10.20;5.38;;;;;;;;;;5043102;28;20037;-62
2022/04/21 00:15:04;;;;;;;11.63;5.63;;;;;;;;;;5045499;28;20139;-58
2022/04/21 00:17:31;;;;;;;12.88;6.43;;;;;;;;;;5046713;28;20047;-58
2022/04/21 00:19:59;;;;;;;10.38;5.35;;;;;;;;;;5027736;28;20068;-61
2022/04/21 00:25:11;;;;;;;12.45;5.70;;;;;;;;;;5045110;28;20155;-60
2022/04/21 00:27:39;;;;;;;9.23;5.38;;;;;;;;;;5025276;28;20047;-60
2022/04/21 00:30:06;;;;;;;7.97;5.43;;;;;;;;;;5045495;28;20326;-61
2022/04/21 00:32:34;;;;;;;9.13;5.65;;;;;;;;;;5044065;28;20044;-60
2022/04/21 00:35:01;;;;;;;7.82;5.10;;;;;;;;;;5044417;28;20040;-61
2022/04/21 00:37:28;;;;;;;9.75;5.35;;;;;;;;;;5024066;28;20033;-61
2022/04/21 00:39:55;;;;;;;9.30;5.47;;;;;;;;;;5025121;28;20524;-59
2022/04/21 00:42:21;;;;;;;7.55;5.05;;;;;;;;;;5041169;28;20080;-61
2022/04/21 00:44:51;;;;;;;7.50;5.07;;;;;;;;;;5042197;28;20697;-61
2022/04/21 00:47:18;;;;;;;8.40;4.68;;;;;;;;;;5043483;28;20040;-61
2022/04/21 00:49:49;;;;;;;7.55;4.82;;;;;;;;;;5040431;28;20048;-61
2022/04/21 00:52:16;;;;;;;7.85;4.95;;;;;;;;;;5040715;28;20044;-61
2022/04/21 00:54:43;;;;;;;9.02;4.85;;;;;;;;;;5041306;28;20044;-61
2022/04/21 00:57:10;;;;;;;9.35;5.10;;;;;;;;;;5042956;28;20095;-62
2022/04/21 00:59:38;;;;;;;9.25;5.10;;;;;;;;;;5040370;28;21894;-61
2022/04/21 01:04:51;;;;;;;12.77;5.50;;;;;;;;;;5040509;28;20053;-59
2022/04/21 01:07:17;;;;;;;10.15;5.82;;;;;;;;;;5038617;28;20878;-59
2022/04/21 01:09:44;;;;;;;10.40;5.85;;;;;;;;;;5039204;28;20098;-61
2022/04/21 01:12:13;;;;;;;9.95;5.43;;;;;;;;;;5025668;28;20070;-61
2022/04/21 01:14:40;;;;;;;9.07;5.65;;;;;;;;;;5041437;28;20198;-61
2022/04/21 01:17:07;;;;;;;8.35;5.35;;;;;;;;;;5042348;28;20770;-61
2022/04/21 01:19:34;;;;;;;10.80;5.40;;;;;;;;;;5040441;28;20053;-61
2022/04/21 01:22:01;;;;;;;9.68;5.28;;;;;;;;;;5041410;28;20119;-61
2022/04/21 01:24:28;;;;;;;8.82;5.32;;;;;;;;;;5042004;28;20041;-60
2022/04/21 01:26:55;;;;;;;7.22;4.82;;;;;;;;;;5043701;28;20040;-61
2022/04/21 01:29:22;;;;;;;8.70;5.10;;;;;;;;;;5042211;28;20041;-61
2022/04/21 01:31:51;;;;;;;8.80;5.32;;;;;;;;;;5044402;28;21144;-62
2022/04/21 01:34:18;;;;;;;10.35;5.45;;;;;;;;;;5044355;28;20060;-62
2022/04/21 01:42:16;;;;;;;13.35;5.32;;;;;;;;;;5043793;28;20551;-64
2022/04/21 01:44:43;;;;;;;9.80;5.18;;;;;;;;;;5042850;28;20049;-63
2022/04/21 01:47:09;;;;;;;8.60;4.53;;;;;;;;;;5044468;28;20049;-63
2022/04/21 01:49:36;;;;;;;9.50;4.55;;;;;;;;;;5042876;28;20758;-63
2022/04/21 01:52:03;;;;;;;8.98;5.72;;;;;;;;;;5044682;28;20045;-62
2022/04/21 01:54:30;;;;;;;8.43;5.72;;;;;;;;;;5043594;28;20403;-59
2022/04/21 01:56:56;;;;;;;8.00;4.93;;;;;;;;;;5044449;28;20044;-65
2022/04/21 01:59:23;;;;;;;7.45;4.82;;;;;;;;;;5026391;28;20036;-64
2022/04/21 02:01:50;;;;;;;11.63;5.57;;;;;;;;;;5039787;28;20037;-64
2022/04/21 02:04:17;;;;;;;8.32;4.70;;;;;;;;;;5041992;28;20160;-64
2022/04/21 02:06:43;;;;;;;8.68;4.93;;;;;;;;;;5024422;28;20060;-64
2022/04/21 02:09:10;;;;;;;8.27;4.57;;;;;;;;;;5045519;28;20049;-64
2022/04/21 02:11:37;;;;;;;8.85;5.00;;;;;;;;;;5043154;28;20033;-65
2022/04/21 02:14:04;;;;;;;9.43;5.05;;;;;;;;;;5044178;28;20041;-65
2022/04/21 02:16:30;;;;;;;10.82;5.45;;;;;;;;;;5042209;28;20041;-66
2022/04/21 02:18:57;;;;;;;8.85;5.30;;;;;;;;;;5042515;28;20057;-66
2022/04/21 02:21:24;;;;;;;8.75;5.70;;;;;;;;;;5042365;28;20048;-65
2022/04/21 02:23:50;;;;;;;10.10;5.85;;;;;;;;;;5041220;28;20045;-65
2022/04/21 02:26:17;;;;;;;10.60;5.30;;;;;;;;;;5041824;28;20041;-66
2022/04/21 02:28:44;;;;;;;8.88;5.35;;;;;;;;;;5042673;28;20425;-66
2022/04/21 02:31:10;;;;;;;12.07;6.18;;;;;;;;;;5039289;28;20037;-64
2022/04/21 02:33:37;;;;;;;10.23;6.03;;;;;;;;;;5019673;28;20136;-65
2022/04/21 02:36:04;;;;;;;8.38;5.25;;;;;;;;;;5041637;28;20044;-65
2022/04/21 02:38:31;;;;;;;9.15;5.20;;;;;;;;;;5041926;28;20496;-66
2022/04/21 02:40:57;;;;;;;9.45;5.65;;;;;;;;;;5038980;28;20072;-65
2022/04/21 02:43:24;;;;;;;9.90;6.18;;;;;;;;;;5039357;28;20029;-65
2022/04/21 02:45:51;;;;;;;12.18;5.90;;;;;;;;;;5019193;28;20060;-64
2022/04/21 02:48:18;;;;;;;10.48;5.95;;;;;;;;;;5038783;28;20049;-65
2022/04/21 02:50:44;;;;;;;10.27;5.82;;;;;;;;;;5038145;28;20040;-65
2022/04/21 02:53:12;;;;;;;8.70;5.50;;;;;;;;;;5040782;28;20793;-65
2022/04/21 02:58:24;;;;;;;10.30;6.03;;;;;;;;;;5023175;28;20110;-65
2022/04/21 03:00:51;;;;;;;12.00;6.63;;;;;;;;;;5021624;28;20083;-66
2022/04/21 03:03:18;;;;;;;11.23;6.63;;;;;;;;;;5040596;28;20083;-66
2022/04/21 03:05:44;;;;;;;13.40;6.75;;;;;;;;;;5038924;28;20037;-66
2022/04/21 03:08:11;;;;;;;10.30;5.40;;;;;;;;;;5040311;28;20500;-66
2022/04/21 03:10:38;;;;;;;13.98;6.50;;;;;;;;;;5038579;28;20041;-65
2022/04/21 03:13:05;;;;;;;10.57;5.97;;;;;;;;;;5037792;28;20037;-66
2022/04/21 03:15:33;;;;;;;11.95;6.18;;;;;;;;;;5038815;28;20049;-66
2022/04/21 03:17:59;;;;;;;13.60;6.30;;;;;;;;;;5039273;28;20084;-66
2022/04/21 03:25:56;;;;;;;8.85;5.13;;;;;;;;;;5038770;28;20055;-66
2022/04/21 03:28:23;;;;;;;8.55;5.38;;;;;;;;;;5040632;28;20110;-66
2022/04/21 03:30:51;;;;;;;10.80;5.88;;;;;;;;;;5041991;28;20041;-66
2022/04/21 03:33:18;;;;;;;9.23;5.05;;;;;;;;;;5024249;28;20821;-66
2022/04/21 03:35:45;;;;;;;10.57;5.97;;;;;;;;;;5021935;28;20513;-65
2022/04/21 03:38:14;;;;;;;9.45;4.80;;;;;;;;;;5043213;28;20033;-66
2022/04/21 03:40:41;;;;;;;8.35;4.53;;;;;;;;;;5041537;28;20094;-66
2022/04/21 03:43:08;;;;;;;8.85;4.70;;;;;;;;;;5042373;28;20543;-65
2022/04/21 03:45:35;;;;;;;9.18;4.57;;;;;;;;;;5022706;28;20047;-65
2022/04/21 03:48:02;;;;;;;9.23;5.55;;;;;;;;;;5042273;28;20580;-65
2022/04/21 03:50:31;;;;;;;11.25;5.43;;;;;;;;;;5040379;28;20047;-66
2022/04/21 03:52:58;;;;;;;7.05;4.03;;;;;;;;;;5041731;28;20128;-65
2022/04/21 03:55:25;;;;;;;8.13;4.60;;;;;;;;;;5041204;28;20045;-64
2022/04/21 03:57:52;;;;;;;12.13;4.47;;;;;;;;;;5041672;28;20083;-64
2022/04/21 04:00:19;;;;;;;9.30;4.53;;;;;;;;;;5042065;28;21071;-65
2022/04/21 04:02:46;;;;;;;6.32;3.55;;;;;;;;;;5021945;28;20494;-64
2022/04/21 04:05:12;;;;;;;7.53;3.90;;;;;;;;;;5022484;28;20051;-65
2022/04/21 04:13:09;;;;;;;9.52;3.50;;;;;;;;;;5040776;28;20061;-65
2022/04/21 04:15:36;;;;;;;6.45;3.40;;;;;;;;;;5041436;28;20041;-64
2022/04/21 04:18:03;;;;;;;7.28;3.10;;;;;;;;;;5040216;28;20123;-65
2022/04/21 04:20:30;;;;;;;8.93;3.08;;;;;;;;;;5039221;28;20039;-64
2022/04/21 04:22:56;;;;;;;6.05;2.83;;;;;;;;;;5041748;28;20508;-65
2022/04/21 04:25:23;;;;;;;5.78;2.80;;;;;;;;;;5041876;28;20060;-65
2022/04/21 04:27:50;;;;;;;5.20;2.38;;;;;;;;;;5042835;28;20052;-65
2022/04/21 04:30:16;;;;;;;6.30;2.92;;;;;;;;;;5042968;28;20213;-65
2022/04/21 04:32:43;;;;;;;5.10;2.42;;;;;;;;;;5021513;28;20398;-66
2022/04/21 04:35:10;;;;;;;4.72;2.65;;;;;;;;;;5042034;28;20612;-66
2022/04/21 04:37:36;;;;;;;5.30;2.85;;;;;;;;;;5040464;28;20041;-66
2022/04/21 04:40:03;;;;;;;6.15;3.00;;;;;;;;;;5040521;28;20045;-66
2022/04/21 04:42:30;;;;;;;4.78;2.33;;;;;;;;;;5041236;28;20178;-65
2022/04/21 04:47:42;;;;;;;5.57;3.00;;;;;;;;;;5042048;28;20060;-65
2022/04/21 04:50:09;;;;;;;5.78;2.88;;;;;;;;;;5043453;28;20041;-65
2022/04/21 04:52:37;;;;;;;5.38;2.90;;;;;;;;;;5043208;28;20044;-65
2022/04/21 04:55:04;;;;;;;6.28;2.78;;;;;;;;;;5019582;28;20072;-65
2022/04/21 04:57:31;;;;;;;5.82;2.78;;;;;;;;;;5040401;28;20045;-65
2022/04/21 04:59:58;;;;;;;5.32;2.38;;;;;;;;;;5042944;28;20033;-65
2022/04/21 05:02:24;;;;;;;4.80;2.60;;;;;;;;;;5042178;28;20671;-65
2022/04/21 05:04:51;;;;;;;5.47;2.55;;;;;;;;;;5039539;28;20532;-65
2022/04/21 05:07:18;;;;;;;11.27;2.97;;;;;;;;;;5043149;28;20501;-60
2022/04/21 05:09:45;;;;;;;6.30;3.05;;;;;;;;;;5041513;28;20828;-63
2022/04/21 05:12:11;;;;;;;10.13;3.85;;;;;;;;;;5043250;28;20040;-64
2022/04/21 05:14:38;;;;;;;6.72;2.70;;;;;;;;;;5042389;28;20035;-64
2022/04/21 05:17:05;;;;;;;6.30;2.90;;;;;;;;;;5041905;28;20044;-64
2022/04/21 05:19:32;;;;;;;6.45;2.35;;;;;;;;;;5039737;28;20083;-64
2022/04/21 05:22:04;;;;;;;6.18;2.85;;;;;;;;;;5005733;28;20104;-65
2022/04/21 05:24:34;;;;;;;5.15;2.80;;;;;;;;;;5041211;28;20030;-67
2022/04/21 05:27:01;;;;;;;7.97;3.35;;;;;;;;;;5041560;28;20076;-65
2022/04/21 05:32:18;;;;;;;5.68;2.45;;;;;;;;;;5040615;28;20043;-66
2022/04/21 05:34:45;;;;;;;4.93;2.60;;;;;;;;;;5041355;28;20607;-65
2022/04/21 05:37:13;;;;;;;5.82;2.78;;;;;;;;;;5040598;28;20036;-66
2022/04/21 05:39:39;;;;;;;6.20;2.80;;;;;;;;;;5039581;28;20057;-65
2022/04/21 05:42:06;;;;;;;9.30;3.08;;;;;;;;;;5039469;28;20033;-65
2022/04/21 05:44:35;;;;;;;6.28;2.53;;;;;;;;;;5039284;28;20030;-65
2022/04/21 05:47:02;;;;;;;8.43;2.78;;;;;;;;;;5039407;28;20175;-66
2022/04/21 05:49:29;;;;;;;5.80;2.38;;;;;;;;;;5038462;28;20442;-66
2022/04/21 05:51:57;;;;;;;4.82;2.42;;;;;;;;;;5038003;28;20125;-65
2022/04/21 05:54:24;;;;;;;4.93;2.70;;;;;;;;;;5039222;28;22102;-65
2022/04/21 05:56:51;;;;;;;5.78;2.58;;;;;;;;;;5040040;28;21768;-65
2022/04/21 05:59:17;;;;;;;6.25;2.78;;;;;;;;;;5039312;28;20037;-66
2022/04/21 06:01:46;;;;;;;6.55;3.10;;;;;;;;;;5039152;28;20067;-66
2022/04/21 06:04:12;;;;;;;5.45;2.55;;;;;;;;;;5039511;28;20383;-66
2022/04/21 06:06:39;;;;;;;5.88;2.85;;;;;;;;;;5038434;28;20076;-66
2022/04/21 06:09:06;;;;;;;5.22;2.75;;;;;;;;;;5039387;28;20533;-65
2022/04/21 06:11:33;;;;;;;7.22;2.58;;;;;;;;;;5017513;28;20049;-65
2022/04/21 06:14:00;;;;;;;4.55;2.50;;;;;;;;;;5039326;28;20034;-65
2022/04/21 06:16:28;;;;;;;11.45;2.70;;;;;;;;;;5019849;28;20204;-65
2022/04/21 06:18:55;;;;;;;5.05;2.72;;;;;;;;;;5038331;28;20045;-65
2022/04/21 06:21:21;;;;;;;4.97;2.75;;;;;;;;;;5036939;28;20060;-65
2022/04/21 06:23:48;;;;;;;5.55;2.40;;;;;;;;;;5039817;28;20044;-65
2022/04/21 06:26:15;;;;;;;6.07;2.55;;;;;;;;;;5039818;28;20037;-66
2022/04/21 06:28:41;;;;;;;6.57;2.67;;;;;;;;;;5038929;28;20072;-66
2022/04/21 06:31:08;;;;;;;5.47;2.72;;;;;;;;;;5038702;28;20147;-65
2022/04/21 06:33:35;;;;;;;7.53;2.50;;;;;;;;;;5039385;28;20029;-65
2022/04/21 06:36:06;;;;;;;6.85;2.88;;;;;;;;;;5038350;28;20049;-66
2022/04/21 06:38:33;;;;;;;6.72;2.80;;;;;;;;;;5038479;28;20041;-66
2022/04/21 06:41:01;;;;;;;5.63;2.58;;;;;;;;;;5038901;28;20045;-65
2022/04/21 06:48:58;;;;;;;6.57;2.45;;;;;;;;;;5038376;28;20040;-64
2022/04/21 06:51:27;;;;;;;6.88;2.72;;;;;;;;;;5037605;28;20039;-66
2022/04/21 06:53:55;;;;;;;6.53;3.30;;;;;;;;;;5040124;28;20391;-65
2022/04/21 06:56:22;;;;;;;4.97;2.30;;;;;;;;;;5038468;28;20056;-66
2022/04/21 06:58:49;;;;;;;6.38;2.95;;;;;;;;;;5038044;28;20060;-66
2022/04/21 07:01:15;;;;;;;5.60;2.53;;;;;;;;;;5039143;28;20065;-67
2022/04/21 07:03:42;;;;;;;4.68;2.55;;;;;;;;;;5042276;28;20048;-66
2022/04/21 07:06:10;;;;;;;5.70;2.85;;;;;;;;;;5043429;28;20177;-66
2022/04/21 07:08:36;;;;;;;6.03;3.03;;;;;;;;;;5041684;28;20041;-66
2022/04/21 07:11:03;;;;;;;7.63;3.17;;;;;;;;;;5042918;28;20081;-66
2022/04/21 07:13:30;;;;;;;7.00;2.97;;;;;;;;;;5043298;28;20056;-67
2022/04/21 07:15:57;;;;;;;5.65;2.78;;;;;;;;;;5043195;28;20057;-67
2022/04/21 07:18:23;;;;;;;9.10;3.30;;;;;;;;;;5040864;28;20638;-66
2022/04/21 07:20:50;;;;;;;5.22;2.80;;;;;;;;;;5025144;28;20037;-66
2022/04/21 07:23:17;;;;;;;5.13;2.40;;;;;;;;;;5042836;28;20064;-66
2022/04/21 07:25:43;;;;;;;5.40;2.60;;;;;;;;;;5041739;28;20044;-66
2022/04/21 07:28:10;;;;;;;6.97;2.60;;;;;;;;;;5042979;28;20124;-67
2022/04/21 07:30:39;;;;;;;5.88;2.75;;;;;;;;;;5041433;28;20103;-66
2022/04/21 07:33:06;;;;;;;5.63;2.10;;;;;;;;;;5042474;28;20099;-65
2022/04/21 07:35:34;;;;;;;4.82;2.70;;;;;;;;;;5041587;28;20056;-67
2022/04/21 07:38:01;;;;;;;5.80;2.97;;;;;;;;;;5043457;28;20113;-66
2022/04/21 07:40:28;;;;;;;5.25;2.42;;;;;;;;;;5039885;28;20124;-66
2022/04/21 07:42:54;;;;;;;6.55;2.85;;;;;;;;;;5040561;28;20041;-66
2022/04/21 07:45:21;;;;;;;5.40;2.55;;;;;;;;;;5042254;28;20041;-66
2022/04/21 07:47:48;;;;;;;8.40;2.85;;;;;;;;;;5021928;28;20041;-66
2022/04/21 07:50:15;;;;;;;7.75;2.80;;;;;;;;;;5021561;28;20041;-67
2022/04/21 07:55:27;;;;;;;7.43;2.60;;;;;;;;;;5042172;28;20067;-66
2022/04/21 07:57:55;;;;;;;4.60;2.40;;;;;;;;;;5043626;28;20179;-66
2022/04/21 08:00:23;;;;;;;5.90;2.75;;;;;;;;;;5040848;28;20037;-66
2022/04/21 08:02:50;;;;;;;5.35;2.60;;;;;;;;;;5042078;28;20041;-66
2022/04/21 08:05:17;;;;;;;5.50;2.72;;;;;;;;;;5041481;28;20132;-66
2022/04/21 08:07:44;;;;;;;5.32;2.85;;;;;;;;;;5040486;28;20087;-66
2022/04/21 08:10:12;;;;;;;7.45;3.00;;;;;;;;;;5013758;28;20489;-67
2022/04/21 08:12:45;;;;;;;7.63;2.90;;;;;;;;;;5039771;28;20041;-67
2022/04/21 08:15:12;;;;;;;;;;;;;;;;;;5020885;28;20049;-67
2022/04/21 08:17:39;;;;;;;5.28;2.70;;;;;;;;;;5040673;28;20029;-67
2022/04/21 08:20:07;;;;;;;9.20;2.40;;;;;;;;;;5041141;28;20049;-66
2022/04/21 08:22:34;;;;;;;5.40;2.10;;;;;;;;;;5041595;28;20041;-66
2022/04/21 08:33:16;;;;;;;6.50;2.30;;;;;;;;;;5041047;28;20052;-65
2022/04/21 08:35:44;;;;;;;5.63;2.58;;;;;;;;;;5038814;28;20474;-66
2022/04/21 08:38:11;;;;;;;8.10;2.15;;;;;;;;;;5041078;28;20258;-66
2022/04/21 08:40:38;;;;;;;5.63;2.55;;;;;;;;;;5039623;28;20036;-67
2022/04/21 08:43:14;;;;;;;8.77;2.17;;;;;;;;;;5038440;28;20052;-66
2022/04/21 08:45:43;;;;;;;6.60;2.55;;;;;;;;;;5039237;28;20111;-67
2022/04/21 08:48:11;;;;;;;5.07;2.53;;;;;;;;;;5041475;28;20072;-66
2022/04/21 08:50:38;;;;;;;6.13;2.33;;;;;;;;;;5040118;28;20049;-67
2022/04/21 08:53:09;;;;;;;4.63;2.20;;;;;;;;;;5042397;28;20040;-67
2022/04/21 08:55:35;;;;;;;7.13;2.30;;;;;;;;;;5041962;28;20052;-67
2022/04/21 08:58:03;;;;;;;5.18;2.40;;;;;;;;;;5041734;28;20052;-67
2022/04/21 09:00:33;;;;;;;6.07;2.45;;;;;;;;;;5040931;28;21912;-67
2022/04/21 09:03:00;;;;;;;6.22;2.28;;;;;;;;;;5023062;28;20052;-67
2022/04/21 09:05:30;;;;;;;5.03;2.35;;;;;;;;;;5022614;28;20052;-67
2022/04/21 09:07:57;;;;;;;6.60;2.80;;;;;;;;;;5024477;28;20049;-67
2022/04/21 09:10:25;;;;;;;5.68;2.25;;;;;;;;;;5021067;28;20055;-67
2022/04/21 09:12:55;;;;;;;5.68;2.13;;;;;;;;;;5041239;28;20044;-68
2022/04/21 09:15:23;;;;;;;5.55;2.38;;;;;;;;;;5037981;28;20056;-67
2022/04/21 09:18:00;;;;;;;5.38;2.38;;;;;;;;;;5041339;28;20265;-68
2022/04/21 09:20:33;;;;;;;5.93;2.47;;;;;;;;;;5018692;28;20049;-67
2022/04/21 09:23:02;;;;;;;4.80;2.20;;;;;;;;;;5037970;28;20044;-68
2022/04/21 09:25:31;;;;;;;6.20;2.33;;;;;;;;;;5039548;28;20125;-68
2022/04/21 09:27:58;;;;;;;8.02;2.35;;;;;;;;;;5041291;28;20036;-68
2022/04/21 09:30:25;;;;;;;4.28;2.20;;;;;;;;;;5020220;28;20093;-68
2022/04/21 09:32:59;;;;;;;5.82;2.30;;;;;;;;;;5040446;28;20048;-67
2022/04/21 09:35:27;;;;;;;4.20;2.05;;;;;;;;;;5040878;28;20144;-67
2022/04/21 09:37:58;;;;;;;5.30;2.28;;;;;;;;;;5040075;28;20033;-67
2022/04/21 09:40:26;;;;;;;6.70;2.28;;;;;;;;;;5039541;28;20044;-67
2022/04/21 09:43:02;;;;;;;4.60;2.22;;;;;;;;;;5039161;28;20036;-66
2022/04/21 09:48:18;;;;;;;4.72;1.83;;;;;;;;;;5042753;28;20082;-67
2022/04/21 09:50:49;;;;;;;7.47;2.85;;;;;;;;;;5039824;28;20041;-66
2022/04/21 09:53:19;;;;;;;4.43;2.35;;;;;;;;;;5041541;28;20061;-66
2022/04/21 09:55:46;;;;;;;5.22;2.38;;;;;;;;;;5039913;28;20049;-66
2022/04/21 09:58:14;;;;;;;5.07;2.47;;;;;;;;;;5043008;28;20032;-66
2022/04/21 10:00:44;;;;;;;8.55;2.38;;;;;;;;;;5039501;28;20421;-65
2022/04/21 10:03:11;;;;;;;6.90;2.67;;;;;;;;;;5041806;28;20029;-65
2022/04/21 10:05:42;;;;;;;6.40;2.83;;;;;;;;;;5041388;28;20033;-65
2022/04/21 10:08:10;;;;;;;5.05;2.58;;;;;;;;;;5041756;28;20052;-67
2022/04/21 10:10:38;;;;;;;5.50;2.47;;;;;;;;;;5041417;28;20030;-65
2022/04/21 10:13:06;;;;;;;7.22;2.72;;;;;;;;;;5042196;28;20036;-65
2022/04/21 10:15:34;;;;;;;12.65;3.00;;;;;;;;;;5039574;28;20048;-65
2022/04/21 10:18:00;;;;;;;5.85;2.95;;;;;;;;;;5039569;28;20041;-66
2022/04/21 10:20:30;;;;;;;4.95;2.67;;;;;;;;;;5040364;28;20072;-65
2022/04/21 10:22:57;;;;;;;6.15;2.95;;;;;;;;;;5040881;28;20033;-65
2022/04/21 10:25:36;;;;;;;7.53;2.55;;;;;;;;;;5021441;28;20492;-66
2022/04/21 10:28:23;;;;;;;5.68;3.00;;;;;;;;;;5041157;28;21683;-65
2022/04/21 10:30:50;;;;;;;7.10;3.08;;;;;;;;;;5019488;28;20114;-65
2022/04/21 10:33:16;;;;;;;6.53;2.97;;;;;;;;;;5039618;28;20041;-65
2022/04/21 10:35:49;;;;;;;4.60;2.33;;;;;;;;;;5039278;28;20060;-65
2022/04/21 10:38:16;;;;;;;8.93;2.90;;;;;;;;;;5041147;28;20036;-66
2022/04/21 10:40:58;;;;;;;7.38;3.65;;;;;;;;;;5020928;28;20047;-66
2022/04/21 10:43:25;;;;;;;5.18;3.10;;;;;;;;;;5021200;28;20052;-65
2022/04/21 10:46:05;;;;;;;6.95;3.10;;;;;;;;;;5039789;28;20434;-65
2022/04/21 10:48:41;;;;;;;6.55;3.25;;;;;;;;;;5041962;28;20842;-66
2022/04/21 10:51:08;;;;;;;5.75;2.92;;;;;;;;;;5040669;28;20048;-66
2022/04/21 10:59:31;;;;;;;6.22;3.28;;;;;;;;;;5037808;28;20277;-64
2022/04/21 11:02:12;;;;;;;7.38;2.97;;;;;;;;;;5038066;28;20075;-66
2022/04/21 11:04:39;;;;;;;6.03;2.80;;;;;;;;;;5036853;28;21051;-64
2022/04/21 11:07:07;;;;;;;6.60;2.90;;;;;;;;;;5038575;28;20149;-66
2022/04/21 11:09:35;;;;;;;6.15;2.95;;;;;;;;;;5037169;28;20036;-65
2022/04/21 11:12:04;;;;;;;5.47;2.88;;;;;;;;;;5038698;28;20032;-66
2022/04/21 11:14:32;;;;;;;5.45;2.53;;;;;;;;;;5025415;28;20068;-66
2022/04/21 11:17:02;;;;;;;8.90;3.40;;;;;;;;;;5036405;28;20077;-66
2022/04/21 11:19:45;;;;;;;6.03;3.00;;;;;;;;;;5038074;28;20505;-66
2022/04/21 11:22:13;;;;;;;6.28;2.83;;;;;;;;;;5037817;28;20502;-65
2022/04/21 11:24:58;;;;;;;6.45;3.33;;;;;;;;;;5038433;28;20807;-66
2022/04/21 11:27:26;;;;;;;5.72;3.05;;;;;;;;;;5039480;28;20124;-66
2022/04/21 11:29:53;;;;;;;6.63;3.30;;;;;;;;;;5040340;28;20053;-66
2022/04/21 11:32:20;;;;;;;5.22;2.92;;;;;;;;;;5038773;28;20044;-66
2022/04/21 11:35:13;;;;;;;6.30;3.30;;;;;;;;;;5039532;28;20044;-65
2022/04/21 11:37:46;;;;;;;4.93;2.87;;;;;;;;;;5033464;28;20060;-66
2022/04/21 11:40:22;;;;;;;5.32;2.92;;;;;;;;;;5038585;28;20107;-66
2022/04/21 11:42:52;;;;;;;7.32;3.25;;;;;;;;;;5037904;28;20036;-66
2022/04/21 11:45:26;;;;;;;6.43;3.28;;;;;;;;;;5039385;28;20036;-65
2022/04/21 11:47:53;;;;;;;6.15;3.38;;;;;;;;;;5037865;28;20034;-66
2022/04/21 11:50:22;;;;;;;6.93;3.60;;;;;;;;;;5024007;28;20048;-67
2022/04/21 11:52:52;;;;;;;6.00;3.38;;;;;;;;;;5040559;28;20047;-67
2022/04/21 11:55:20;;;;;;;7.28;3.50;;;;;;;;;;5023126;28;20051;-67
2022/04/21 11:57:47;;;;;;;5.80;2.80;;;;;;;;;;5029280;28;20045;-67
2022/04/21 12:00:16;;;;;;;5.43;3.13;;;;;;;;;;5043537;28;20580;-66
2022/04/21 12:08:31;;;;;;;5.20;3.05;;;;;;;;;;4994640;28;20035;-64
2022/04/21 12:10:58;;;;;;;5.28;3.00;;;;;;;;;;5031690;28;20067;-66
2022/04/21 12:13:25;;;;;;;12.25;4.05;;;;;;;;;;5040556;28;20037;-64
2022/04/21 12:15:52;;;;;;;8.70;4.03;;;;;;;;;;5042366;28;20067;-58
2022/04/21 12:18:18;;;;;;;8.18;3.95;;;;;;;;;;5042775;28;20752;-65
2022/04/21 12:20:54;;;;;;;7.88;3.65;;;;;;;;;;5040024;28;20050;-65
2022/04/21 12:23:27;;;;;;;7.43;3.90;;;;;;;;;;5041401;28;20043;-65
2022/04/21 12:25:58;;;;;;;8.18;3.58;;;;;;;;;;5043795;28;20044;-65
2022/04/21 12:28:24;;;;;;;6.95;3.45;;;;;;;;;;5041816;28;20041;-65
2022/04/21 12:30:51;;;;;;;7.90;4.03;;;;;;;;;;5041265;28;20774;-64
2022/04/21 12:33:18;;;;;;;7.43;3.58;;;;;;;;;;5042405;28;20041;-64
2022/04/21 12:35:50;;;;;;;6.28;3.35;;;;;;;;;;5040967;28;20120;-65
2022/04/21 12:41:02;;;;;;;7.18;4.05;;;;;;;;;;5021417;28;20056;-64
2022/04/21 12:43:30;;;;;;;7.50;3.97;;;;;;;;;;5040554;28;20052;-64
2022/04/21 12:45:58;;;;;;;7.40;3.50;;;;;;;;;;5041175;28;20045;-65
2022/04/21 12:48:28;;;;;;;7.68;3.78;;;;;;;;;;5041158;28;20045;-59
2022/04/21 12:51:00;;;;;;;11.85;4.43;;;;;;;;;;5041879;28;20052;-65
2022/04/21 12:53:27;;;;;;;7.20;4.05;;;;;;;;;;5040901;28;20401;-65
2022/04/21 12:55:54;;;;;;;8.73;3.97;;;;;;;;;;5040189;28;20391;-65
2022/04/21 12:58:34;;;;;;;8.40;4.35;;;;;;;;;;5039212;28;20040;-65
2022/04/21 13:01:01;;;;;;;13.25;4.25;;;;;;;;;;5039909;28;20963;-65
2022/04/21 13:03:30;;;;;;;6.95;3.63;;;;;;;;;;5040657;28;20033;-64
2022/04/21 13:05:58;;;;;;;7.50;3.95;;;;;;;;;;5041571;28;20045;-65
2022/04/21 13:08:28;;;;;;;7.00;3.83;;;;;;;;;;5039626;28;20552;-66
2022/04/21 13:10:56;;;;;;;8.27;4.25;;;;;;;;;;5038839;28;20614;-65
2022/04/21 13:13:23;;;;;;;9.82;4.53;;;;;;;;;;5041383;28;20159;-65
2022/04/21 13:15:50;;;;;;;9.95;4.72;;;;;;;;;;5042103;28;20044;-65
2022/04/21 13:18:18;;;;;;;8.15;4.20;;;;;;;;;;5041772;28;20177;-65
2022/04/21 13:23:33;;;;;;;6.60;3.83;;;;;;;;;;5040685;28;20098;-66
2022/04/21 13:26:03;;;;;;;7.85;4.45;;;;;;;;;;5040427;28;20033;-66
2022/04/21 13:28:30;;;;;;;6.60;4.07;;;;;;;;;;5042155;28;20036;-66
2022/04/21 13:33:42;;;;;;;10.05;4.45;;;;;;;;;;5042062;28;20052;-65
2022/04/21 13:36:09;;;;;;;7.32;3.55;;;;;;;;;;5041402;28;20132;-67
2022/04/21 13:38:35;;;;;;;7.57;3.95;;;;;;;;;;5040751;28;20062;-66
2022/04/21 13:41:02;;;;;;;7.75;3.75;;;;;;;;;;5040502;28;20520;-66
2022/04/21 13:43:29;;;;;;;8.40;3.92;;;;;;;;;;5040933;28;20473;-65
2022/04/21 13:45:56;;;;;;;7.60;3.60;;;;;;;;;;5040315;28;20041;-65
2022/04/21 13:48:24;;;;;;;13.98;4.25;;;;;;;;;;5040365;28;20040;-66
2022/04/21 13:50:50;;;;;;;10.85;3.97;;;;;;;;;;5038810;28;20033;-67
2022/04/21 13:53:17;;;;;;;7.05;3.65;;;;;;;;;;5039010;28;20032;-66
2022/04/21 13:55:44;;;;;;;7.78;3.40;;;;;;;;;;5019348;28;21036;-65
2022/04/21 13:58:12;;;;;;;9.25;3.05;;;;;;;;;;5039307;28;20064;-66
2022/04/21 14:00:44;;;;;;;8.70;3.67;;;;;;;;;;5038295;28;20082;-66
2022/04/21 14:03:12;;;;;;;11.40;3.65;;;;;;;;;;5039377;28;20087;-66
2022/04/21 14:05:39;;;;;;;8.82;4.20;;;;;;;;;;5038791;28;20048;-66
2022/04/21 14:08:06;;;;;;;7.80;3.47;;;;;;;;;;5039816;28;20152;-66
2022/04/21 14:10:33;;;;;;;6.20;3.33;;;;;;;;;;5040093;28;20048;-66
2022/04/21 14:13:00;;;;;;;8.63;3.70;;;;;;;;;;5039044;28;20044;-66
2022/04/21 14:15:27;;;;;;;10.93;3.75;;;;;;;;;;5037363;28;20506;-66
2022/04/21 14:17:53;;;;;;;7.60;4.13;;;;;;;;;;5039907;28;20040;-66
2022/04/21 14:20:20;;;;;;;6.70;3.60;;;;;;;;;;5039797;28;20124;-66
2022/04/21 14:22:47;;;;;;;8.88;3.95;;;;;;;;;;5019875;28;20041;-66
2022/04/21 14:25:14;;;;;;;7.85;3.92;;;;;;;;;;5022898;28;20044;-66
2022/04/21 14:27:40;;;;;;;7.78;4.10;;;;;;;;;;5040399;28;20048;-67
2022/04/21 14:30:07;;;;;;;7.85;3.65;;;;;;;;;;5020112;28;20045;-66
2022/04/21 14:32:38;;;;;;;10.30;3.63;;;;;;;;;;5039743;28;20045;-65
2022/04/21 14:35:06;;;;;;;8.68;4.00;;;;;;;;;;5019869;28;20049;-66
2022/04/21 14:45:49;;;;;;;10.15;4.18;;;;;;;;;;5009774;28;20051;-64
2022/04/21 14:48:22;;;;;;;7.32;3.92;;;;;;;;;;5023858;28;20116;-66
2022/04/21 14:50:49;;;;;;;7.38;4.00;;;;;;;;;;5038131;28;20793;-66
2022/04/21 14:53:16;;;;;;;10.52;4.15;;;;;;;;;;5040513;28;20072;-66
2022/04/21 14:55:42;;;;;;;7.13;3.78;;;;;;;;;;5039186;28;20056;-66
2022/04/21 14:58:09;;;;;;;6.03;3.70;;;;;;;;;;5040735;28;20079;-66
2022/04/21 15:00:36;;;;;;;5.97;3.67;;;;;;;;;;5039860;28;20496;-66
2022/04/21 15:03:03;;;;;;;7.72;4.35;;;;;;;;;;5040344;28;20052;-65
2022/04/21 15:05:29;;;;;;;9.60;3.92;;;;;;;;;;5040135;28;20037;-65
2022/04/21 15:07:56;;;;;;;12.20;4.00;;;;;;;;;;5040366;28;20036;-65
2022/04/21 15:10:23;;;;;;;7.50;4.15;;;;;;;;;;5039465;28;20206;-65
2022/04/21 15:12:50;;;;;;;6.60;4.00;;;;;;;;;;5041076;28;20041;-65
2022/04/21 15:15:16;;;;;;;6.45;3.40;;;;;;;;;;5041305;28;20045;-65
2022/04/21 15:17:43;;;;;;;7.18;3.50;;;;;;;;;;5010536;28;20033;-65
2022/04/21 15:20:10;;;;;;;8.60;3.60;;;;;;;;;;5039876;28;20102;-66
2022/04/21 15:22:37;;;;;;;6.55;3.88;;;;;;;;;;5040147;28;20044;-66
2022/04/21 15:25:03;;;;;;;5.78;3.40;;;;;;;;;;5043868;28;20045;-66
2022/04/21 15:27:30;;;;;;;7.47;3.30;;;;;;;;;;5042726;28;20048;-66
2022/04/21 15:29:57;;;;;;;7.55;3.80;;;;;;;;;;5043497;28;20117;-67
2022/04/21 15:32:24;;;;;;;6.20;3.35;;;;;;;;;;5043943;28;20048;-67
2022/04/21 15:34:50;;;;;;;6.82;3.65;;;;;;;;;;5044096;28;20047;-66
2022/04/21 15:37:17;;;;;;;6.57;2.88;;;;;;;;;;5042515;28;20053;-67
2022/04/21 15:39:45;;;;;;;5.97;3.30;;;;;;;;;;5041051;28;20037;-67
2022/04/21 15:42:11;;;;;;;6.93;3.40;;;;;;;;;;5042711;28;20048;-67
2022/04/21 15:44:38;;;;;;;6.50;3.45;;;;;;;;;;5041782;28;20498;-67
2022/04/21 15:47:05;;;;;;;7.10;3.60;;;;;;;;;;5042127;28;20041;-67
2022/04/21 15:49:32;;;;;;;5.95;2.90;;;;;;;;;;5041115;28;20041;-68
2022/04/21 15:51:59;;;;;;;6.22;3.15;;;;;;;;;;5041083;28;20033;-68
2022/04/21 15:59:57;;;;;;;8.20;3.17;;;;;;;;;;5041412;28;20380;-68
2022/04/21 16:02:24;;;;;;;6.80;2.63;;;;;;;;;;5040210;28;20271;-69
2022/04/21 16:04:51;;;;;;;5.78;2.85;;;;;;;;;;5041986;28;20037;-68
2022/04/21 16:07:18;;;;;;;7.03;2.80;;;;;;;;;;5041728;28;20506;-68